Time;durP1;ratioP1;P1;durP2;ratioP2;P2;SDS_P1;SDS_P2;PMS_P1;PMS_P2;Temp;Humidity;BMP_temperature;BMP_pressure;BME280_temperature;BME280_humidity;BME280_pressure;Samples;Min_cycle;Max_cycle;Signal;HPM_P1;HPM_P2
2022/07/13 00:01:46;;;;;;;;;;;19.50;66.30;;;18.74;61.60;96578.88;4205679;33;20126;-82
2022/07/13 00:04:15;;;;;;;;;;;19.40;66.30;;;18.74;61.32;96578.88;4205425;33;19902;-81
2022/07/13 00:06:45;;;;;;;;;;;19.40;66.20;;;18.74;61.28;96582.44;4181859;33;19910;-81
2022/07/13 00:09:14;;;;;;;;;;;19.40;66.10;;;18.71;61.68;96572.81;4182008;33;19913;-81
2022/07/13 00:11:42;;;;;;;;;;;19.40;66.30;;;18.70;61.74;96573.94;4181512;33;19918;-81
2022/07/13 00:14:11;;;;;;;;;;;19.40;66.30;;;18.71;61.15;96572.00;4205966;33;20029;-81
2022/07/13 00:16:40;;;;;;;;;;;19.40;66.20;;;18.70;61.50;96579.50;4159044;33;20095;-81
2022/07/13 00:19:09;;;;;;;;;;;19.40;66.20;;;18.69;61.48;96577.84;4181825;33;19903;-81
2022/07/13 00:21:37;;;;;;;;;;;19.40;66.10;;;18.69;61.57;96566.75;4181748;33;20286;-81
2022/07/13 00:24:07;;;;;;;;;;;19.40;66.20;;;18.68;61.24;96570.66;4181621;33;20041;-81
2022/07/13 00:26:36;;;;;;;;;;;19.30;66.20;;;18.68;61.35;96576.19;4158839;33;20209;-81
2022/07/13 00:29:05;;;;;;;;;;;19.30;66.10;;;18.67;61.49;96574.56;4181763;33;19914;-81
2022/07/13 00:31:34;;;;;;;;;;;19.30;66.20;;;18.67;61.54;96580.09;4158588;33;20440;-81
2022/07/13 00:34:02;;;;;;;;;;;19.40;66.30;;;18.66;61.67;96581.25;4181497;33;19903;-81
2022/07/13 00:36:31;;;;;;;;;;;19.30;66.30;;;18.67;61.44;96582.06;4158964;33;19902;-80
2022/07/13 00:39:00;;;;;;;;;;;19.40;66.30;;;18.64;61.58;96572.44;4158698;33;19950;-81
2022/07/13 00:41:30;;;;;;;;;;;19.30;66.20;;;18.65;61.36;96576.03;4181158;33;19902;-80
2022/07/13 00:44:07;;;;;;;;;;;19.30;66.30;;;18.64;61.73;96566.91;4158855;33;20288;-81
2022/07/13 00:46:36;;;;;;;;;;;19.30;66.40;;;18.62;61.56;96566.38;4158805;33;20352;-81
2022/07/13 00:49:05;;;;;;;;;;;19.30;66.20;;;18.62;61.74;96560.84;4158666;33;19902;-81
2022/07/13 00:51:34;;;;;;;;;;;19.30;66.40;;;18.62;61.70;96563.59;4158268;33;20157;-81
2022/07/13 00:54:03;;;;;;;;;;;19.30;66.40;;;18.61;61.42;96567.50;4205672;33;19903;-81
2022/07/13 00:56:33;;;;;;;;;;;19.30;66.30;;;18.60;61.63;96563.09;4181630;33;19902;-81
2022/07/13 00:59:03;;;;;;;;;;;19.30;66.30;;;18.60;61.37;96563.09;4158636;33;20368;-81
2022/07/13 01:01:32;;;;;;;;;;;19.30;66.30;;;18.59;62.02;96561.47;4158087;33;20142;-81
2022/07/13 01:04:00;;;;;;;;;;;19.30;66.50;;;18.59;61.61;96561.47;4158582;33;19995;-81
2022/07/13 01:06:29;;;;;;;;;;;19.30;66.30;;;18.58;61.41;96559.81;4158601;33;20022;-81
2022/07/13 01:08:58;;;;;;;;;;;19.30;66.30;;;18.58;61.56;96559.00;4181407;33;19909;-81
2022/07/13 01:11:26;;;;;;;;;;;19.30;67.30;;;18.57;61.73;96557.38;4180882;33;19903;-81
2022/07/13 01:13:56;;;;;;;;;;;19.20;66.10;;;18.57;61.45;96554.59;4158390;33;19902;-81
2022/07/13 01:16:45;;;;;;;;;;;19.20;66.10;;;18.55;61.72;96558.50;4204487;33;20081;-81
2022/07/13 01:19:14;;;;;;;;;;;19.30;66.50;;;18.55;61.71;96560.44;4176739;34;19919;-81
2022/07/13 01:21:45;;;;;;;;;;;19.30;66.30;;;18.54;62.20;96558.78;4130821;34;19910;-81
2022/07/13 01:24:15;;;;;;;;;;;19.20;66.30;;;18.53;61.37;96555.22;4131558;34;19903;-81
2022/07/13 01:27:02;;;;;;;;;;;19.20;66.20;;;18.52;61.88;96544.44;4131027;34;20218;-81
2022/07/13 01:30:09;;;;;;;;;;;19.20;66.40;;;18.52;61.48;96550.00;4126838;34;19911;-81
2022/07/13 01:32:45;;;;;;;;;;;19.20;66.40;;;18.51;61.67;96543.63;4130772;34;19903;-81
2022/07/13 01:36:19;;;;;;;;;;;19.20;66.40;;;18.51;61.47;96540.03;4153649;34;19912;-81
2022/07/13 01:39:06;;;;;;;;;;;19.20;66.30;;;18.50;61.54;96530.06;4131101;34;19903;-81
2022/07/13 01:41:37;;;;;;;;;;;19.20;66.30;;;18.49;61.62;96533.97;4130808;34;19918;-81
2022/07/13 01:44:06;;;;;;;;;;;19.20;66.50;;;18.49;61.61;96536.75;4131012;34;19903;-81
2022/07/13 01:46:35;;;;;;;;;;;19.20;66.30;;;18.48;61.71;96537.88;4153776;34;20128;-81
2022/07/13 01:49:17;;;;;;;;;;;19.20;66.40;;;18.48;61.33;96540.66;4130897;34;19903;-81
2022/07/13 01:51:46;;;;;;;;;;;19.10;66.10;;;18.48;61.88;96537.88;4153304;34;19911;-81
2022/07/13 01:54:16;;;;;;;;;;;19.10;66.40;;;18.46;61.80;96540.16;4153309;34;20200;-81
2022/07/13 01:56:46;;;;;;;;;;;19.10;66.60;;;18.46;61.42;96540.16;4153546;34;20227;-81
2022/07/13 01:59:15;;;;;;;;;;;19.10;66.40;;;18.45;61.36;96536.56;4176291;34;20128;-81
2022/07/13 02:01:44;;;;;;;;;;;19.10;66.20;;;18.45;61.75;96538.50;4130449;34;20222;-81
2022/07/13 02:04:13;;;;;;;;;;;19.10;66.40;;;18.44;61.57;96536.88;4153222;34;20227;-81
2022/07/13 02:06:41;;;;;;;;;;;19.10;66.50;;;18.44;61.59;96534.09;4153560;34;19911;-81
2022/07/13 02:09:10;;;;;;;;;;;19.10;66.50;;;18.42;61.50;96533.59;4130671;34;20024;-82
2022/07/13 02:11:39;;;;;;;;;;;19.10;66.40;;;18.42;61.83;96533.59;4130372;34;19989;-81
2022/07/13 02:14:09;;;;;;;;;;;19.10;66.60;;;18.39;61.92;96527.56;4149882;33;20019;-81
2022/07/13 02:16:38;;;;;;;;;;;19.10;66.50;;;18.39;61.56;96523.94;4205156;33;20329;-81
2022/07/13 02:19:08;;;;;;;;;;;19.10;66.40;;;18.37;61.82;96524.28;4206192;33;20226;-81
2022/07/13 02:21:36;;;;;;;;;;;19.10;66.50;;;18.37;61.46;96521.50;4182921;33;19910;-81
2022/07/13 02:24:06;;;;;;;;;;;19.10;66.30;;;18.37;61.67;96521.50;4154461;34;20014;-81
2022/07/13 02:26:35;;;;;;;;;;;19.10;66.60;;;18.37;61.75;96517.91;4155134;34;20396;-82
2022/07/13 02:29:05;;;;;;;;;;;19.10;66.60;;;18.37;61.81;96515.97;4154826;34;20342;-81
2022/07/13 02:31:35;;;;;;;;;;;19.10;66.60;;;18.36;61.77;96517.09;4132501;34;19907;-81
2022/07/13 02:34:05;;;;;;;;;;;19.10;66.70;;;18.35;61.88;96512.69;4170496;33;19903;-81
2022/07/13 02:36:34;;;;;;;;;;;19.10;66.60;;;18.34;61.89;96511.03;4183136;33;20111;-81
2022/07/13 02:39:03;;;;;;;;;;;19.10;66.60;;;18.34;61.68;96513.81;4160194;33;20229;-81
2022/07/13 02:41:31;;;;;;;;;;;19.00;66.40;;;18.34;61.71;96510.19;4182759;33;20163;-81
2022/07/13 02:44:00;;;;;;;;;;;19.00;66.50;;;18.33;61.55;96514.13;4206106;33;19925;-81
2022/07/13 02:46:29;;;;;;;;;;;19.00;66.40;;;18.33;61.79;96514.94;4183157;33;20373;-81
2022/07/13 02:48:59;;;;;;;;;;;19.00;66.50;;;18.32;61.94;96507.75;4160046;33;19903;-81
2022/07/13 02:51:30;;;;;;;;;;;19.00;66.60;;;18.32;61.87;96507.75;4182390;33;19902;-81
2022/07/13 02:53:58;;;;;;;;;;;19.00;66.60;;;18.32;61.90;96506.94;4182930;33;19909;-81
2022/07/13 02:56:27;;;;;;;;;;;19.00;66.70;;;18.31;62.07;96506.13;4159996;33;20130;-81
2022/07/13 02:58:56;;;;;;;;;;;19.00;66.60;;;18.30;61.98;96504.47;4159811;33;19902;-81
2022/07/13 03:01:25;;;;;;;;;;;19.00;66.60;;;18.30;61.74;96498.13;4159500;33;19910;-81
2022/07/13 03:03:54;;;;;;;;;;;19.00;66.50;;;18.30;61.77;96509.22;4182794;33;20030;-81
2022/07/13 03:06:24;;;;;;;;;;;19.00;66.60;;;18.30;61.74;96503.66;4182706;33;19975;-81
2022/07/13 03:08:53;;;;;;;;;;;19.00;66.70;;;18.29;61.89;96497.28;4159859;33;20057;-81
2022/07/13 03:11:22;;;;;;;;;;;19.00;66.60;;;18.28;62.08;96498.41;4159601;33;19910;-81
2022/07/13 03:13:51;;;;;;;;;;;19.00;66.60;;;18.29;61.85;96496.47;4159615;33;20129;-82
2022/07/13 03:16:20;;;;;;;;;;;19.00;66.40;;;18.28;61.75;96501.19;4182562;33;20341;-81
2022/07/13 03:18:49;;;;;;;;;;;19.00;66.50;;;18.28;61.64;96501.19;4206845;33;19940;-81
2022/07/13 03:21:19;;;;;;;;;;;19.00;66.40;;;18.29;61.55;96504.78;4205715;33;19903;-81
2022/07/13 03:23:50;;;;;;;;;;;19.00;66.10;;;18.28;61.85;96501.19;4182437;33;20030;-81
2022/07/13 03:26:18;;;;;;;;;;;19.00;66.50;;;18.28;61.62;96512.28;4182450;33;19903;-81
2022/07/13 03:28:47;;;;;;;;;;;19.00;66.40;;;18.28;61.74;96500.38;4204927;33;19903;-81
2022/07/13 03:31:16;;;;;;;;;;;19.00;66.50;;;18.28;61.85;96498.41;4182424;33;19909;-81
2022/07/13 03:33:45;;;;;;;;;;;19.00;66.50;;;18.27;61.62;96507.84;4159607;33;19909;-81
2022/07/13 03:36:15;;;;;;;;;;;19.00;66.40;;;18.27;61.41;96504.28;4182495;33;20062;-81
2022/07/13 03:38:44;;;;;;;;;;;19.00;66.50;;;18.27;61.71;96505.09;4159609;33;19910;-81
2022/07/13 03:41:14;;;;;;;;;;;19.00;66.50;;;18.27;61.50;96498.75;4159492;33;19910;-81
2022/07/13 03:43:44;;;;;;;;;;;19.00;66.30;;;18.27;61.68;96499.53;4159327;33;20237;-81
2022/07/13 03:46:13;;;;;;;;;;;19.00;66.40;;;18.28;61.56;96506.72;4159425;33;19902;-81
2022/07/13 03:48:41;;;;;;;;;;;19.00;66.50;;;18.29;61.54;96502.81;4182187;33;20065;-81
2022/07/13 03:51:11;;;;;;;;;;;19.00;66.40;;;18.30;61.59;96507.25;4205367;33;19911;-80
2022/07/13 03:53:40;;;;;;;;;;;19.00;66.20;;;18.31;61.18;96508.06;4205911;33;20110;-81
2022/07/13 03:56:09;;;;;;;;;;;19.00;66.00;;;18.32;61.43;96504.97;4205138;33;19974;-81
2022/07/13 03:58:40;;;;;;;;;;;19.00;65.90;;;18.34;61.49;96504.66;4182254;33;20452;-80
2022/07/13 04:01:10;;;;;;;;;;;19.10;66.10;;;18.35;61.38;96498.81;4159237;33;20592;-81
2022/07/13 04:03:39;;;;;;;;;;;19.10;66.00;;;18.36;61.29;96497.69;4158733;33;20103;-81
2022/07/13 04:06:10;;;;;;;;;;;19.10;65.80;;;18.36;60.99;96494.91;4159395;33;23713;-80
2022/07/13 04:08:39;;;;;;;;;;;19.10;65.90;;;18.37;60.92;96493.78;4159128;33;19903;-80
2022/07/13 04:11:09;;;;;;;;;;;19.10;65.70;;;18.38;61.31;96495.44;4159149;33;19903;-81
2022/07/13 04:13:37;;;;;;;;;;;19.10;65.90;;;18.39;61.04;96502.59;4181130;33;20249;-80
2022/07/13 04:16:08;;;;;;;;;;;19.10;65.80;;;18.39;60.91;96505.38;4181404;33;20030;-81
2022/07/13 04:18:39;;;;;;;;;;;19.10;65.80;;;18.39;61.06;96496.22;4158223;33;20126;-81
2022/07/13 04:21:08;;;;;;;;;;;19.10;65.50;;;18.39;61.15;96502.59;4158179;33;19910;-81
2022/07/13 04:23:38;;;;;;;;;;;19.10;65.60;;;18.39;60.85;96496.22;4157680;33;20135;-81
2022/07/13 04:26:07;;;;;;;;;;;19.10;65.60;;;18.38;61.25;96489.88;4181148;33;20222;-82
2022/07/13 04:28:36;;;;;;;;;;;19.10;65.70;;;18.39;61.14;96490.69;4157875;33;20021;-82
2022/07/13 04:31:07;;;;;;;;;;;19.10;65.80;;;18.39;61.31;96496.22;4181007;33;19910;-81
2022/07/13 04:33:39;;;;;;;;;;;19.10;65.80;;;18.38;61.00;96498.19;4203450;33;19903;-82
2022/07/13 04:36:09;;;;;;;;;;;19.10;65.90;;;18.39;61.23;96501.78;4180728;33;20087;-81
2022/07/13 04:38:39;;;;;;;;;;;19.10;65.80;;;18.40;61.23;96498.69;4158077;33;19902;-81
2022/07/13 04:41:08;;;;;;;;;;;19.10;65.80;;;18.43;60.98;96496.41;4157883;33;19903;-81
2022/07/13 04:43:39;;;;;;;;;;;19.10;65.80;;;18.46;60.78;96501.34;4180253;33;19903;-81
2022/07/13 04:46:15;;;;;;;;;;;19.10;65.30;;;18.47;60.37;96508.53;4180944;33;19903;-81
2022/07/13 04:48:45;;;;;;;;;;;19.20;65.00;;;18.49;60.53;96500.72;4180756;33;19910;-81
2022/07/13 04:51:14;;;;;;;;;;;19.20;65.00;;;18.51;60.23;96496.50;4146876;33;20031;-81
2022/07/13 04:53:46;;;;;;;;;;;19.20;64.80;;;18.55;60.37;96496.66;4180591;33;19902;-82
2022/07/13 04:56:15;;;;;;;;;;;19.20;64.80;;;18.58;60.17;96498.81;4204012;33;20007;-82
2022/07/13 04:58:44;;;;;;;;;;;19.30;64.80;;;18.61;60.45;96505.69;4157820;33;19902;-82
2022/07/13 05:01:14;;;;;;;;;;;19.30;64.80;;;18.63;60.10;96501.47;4180926;33;19910;-82
2022/07/13 05:03:43;;;;;;;;;;;19.30;64.60;;;18.66;60.14;96505.56;4203458;33;19914;-82
2022/07/13 05:06:14;;;;;;;;;;;19.40;64.40;;;18.67;59.95;96496.91;4180476;33;20284;-81
2022/07/13 05:08:43;;;;;;;;;;;19.40;64.30;;;18.69;59.70;96500.19;4203715;33;19903;-81
2022/07/13 05:11:12;;;;;;;;;;;19.40;64.00;;;18.69;59.60;96505.75;4180806;33;19909;-82
2022/07/13 05:16:03;;;;;;;;;;;19.40;64.00;;;18.73;60.36;96499.56;4333165;32;19911;-81
2022/07/13 05:18:32;;;;;;;;;;;19.40;64.70;;;18.73;59.78;96494.03;4303650;33;19923;-81
2022/07/13 05:21:05;;;;;;;;;;;19.40;64.10;;;18.71;59.61;96494.34;4302680;33;20248;-81
2022/07/13 05:23:35;;;;;;;;;;;19.40;64.00;;;18.69;59.80;96494.66;4277624;33;19901;-81
2022/07/13 05:26:04;;;;;;;;;;;19.40;64.10;;;18.67;60.05;96505.22;4302568;33;19908;-81
2022/07/13 05:28:33;;;;;;;;;;;19.40;65.10;;;18.65;59.96;96499.19;4302650;33;20160;-81
2022/07/13 05:31:04;;;;;;;;;;;19.40;64.10;;;18.65;59.92;96499.19;4302497;33;20116;-81
2022/07/13 05:33:33;;;;;;;;;;;19.40;64.10;;;18.64;60.11;96507.81;4277561;33;20109;-82
2022/07/13 05:36:04;;;;;;;;;;;19.40;64.50;;;18.64;60.61;96519.75;4302431;33;20275;-82
2022/07/13 05:38:34;;;;;;;;;;;19.40;64.80;;;18.65;60.59;96518.59;4278060;33;19957;-82
2022/07/13 05:41:04;;;;;;;;;;;19.30;65.30;;;18.66;60.33;96508.34;4278111;33;19901;-82
2022/07/13 05:43:33;;;;;;;;;;;19.30;64.80;;;18.64;60.25;96505.88;4301851;33;19901;-82
2022/07/13 05:46:04;;;;;;;;;;;19.40;64.80;;;18.66;60.20;96517.47;4302340;33;20007;-82
2022/07/13 05:48:32;;;;;;;;;;;19.40;64.60;;;18.68;60.72;96520.75;4302330;33;20003;-82
2022/07/13 05:51:01;;;;;;;;;;;19.40;65.50;;;18.72;60.77;96504.28;4302255;33;20148;-82
2022/07/13 05:53:30;;;;;;;;;;;19.40;65.40;;;18.76;60.99;96508.06;4248654;33;20090;-82
2022/07/13 05:56:00;;;;;;;;;;;19.50;65.70;;;18.81;61.19;96507.13;4297356;33;20155;-82
2022/07/13 05:58:29;;;;;;;;;;;19.50;65.60;;;18.82;60.68;96501.28;4274058;33;20447;-82
2022/07/13 06:00:58;;;;;;;;;;;19.50;65.30;;;18.83;60.86;96504.84;4272873;33;19901;-82
2022/07/13 06:03:28;;;;;;;;;;;19.50;65.50;;;18.83;60.93;96497.38;4273357;33;20102;-82
2022/07/13 06:05:56;;;;;;;;;;;19.60;65.40;;;18.84;60.62;96512.03;4273944;33;19902;-82
2022/07/13 06:08:25;;;;;;;;;;;19.60;65.20;;;18.82;60.50;96509.59;4298494;33;20144;-82
2022/07/13 06:10:54;;;;;;;;;;;19.60;64.90;;;18.82;60.75;96503.22;4302898;33;19912;-82
2022/07/13 06:13:22;;;;;;;;;;;19.50;65.10;;;18.81;60.95;96502.41;4301303;33;20379;-82
2022/07/13 06:15:51;;;;;;;;;;;19.50;65.50;;;18.82;60.45;96508.75;4302817;33;19949;-82
2022/07/13 06:18:20;;;;;;;;;;;19.50;65.10;;;18.85;60.58;96514.47;4301829;33;19908;-82
2022/07/13 06:20:50;;;;;;;;;;;19.60;65.40;;;18.86;61.05;96504.22;4301861;33;19901;-82
2022/07/13 06:23:20;;;;;;;;;;;19.60;65.50;;;18.86;60.88;96499.47;4276839;33;20069;-82
2022/07/13 06:25:52;;;;;;;;;;;19.60;65.60;;;18.88;61.35;96507.50;4299214;33;19909;-82
2022/07/13 06:28:21;;;;;;;;;;;19.60;65.80;;;18.88;61.23;96504.72;4292014;33;19901;-82
2022/07/13 06:30:49;;;;;;;;;;;19.60;65.80;;;18.88;60.98;96504.72;4292876;33;19928;-81
2022/07/13 06:33:18;;;;;;;;;;;19.60;65.80;;;18.88;61.16;96499.19;4291427;33;19982;-82
2022/07/13 06:35:47;;;;;;;;;;;19.60;65.70;;;18.90;61.20;96501.63;4291750;33;20125;-82
2022/07/13 06:38:18;;;;;;;;;;;19.60;65.70;;;18.91;61.10;96504.06;4291865;33;19902;-82
2022/07/13 06:40:49;;;;;;;;;;;19.60;65.60;;;18.92;60.93;96508.47;4292900;33;19964;-82
2022/07/13 06:43:18;;;;;;;;;;;19.60;65.60;;;18.94;60.79;96500.69;4291479;33;19970;-82
2022/07/13 06:45:46;;;;;;;;;;;19.70;65.60;;;18.94;60.91;96497.94;4292675;33;19901;-82
2022/07/13 06:48:15;;;;;;;;;;;19.70;65.70;;;18.95;61.10;96499.56;4291752;33;19999;-82
2022/07/13 06:50:44;;;;;;;;;;;19.70;65.70;;;18.95;60.94;96491.25;4267631;33;19908;-82
2022/07/13 06:53:13;;;;;;;;;;;19.70;66.60;;;18.97;61.02;96497.28;4267049;33;20007;-82
2022/07/13 06:55:43;;;;;;;;;;;19.70;65.70;;;18.99;60.98;96497.81;4291655;33;20132;-82
2022/07/13 06:58:12;;;;;;;;;;;19.70;65.70;;;19.03;60.97;96491.63;4292828;33;20210;-82
2022/07/13 07:00:41;;;;;;;;;;;19.70;65.50;;;19.05;61.04;96494.88;4291720;33;20078;-82
2022/07/13 07:03:10;;;;;;;;;;;19.70;65.50;;;19.07;60.77;96489.84;4291177;33;19999;-82
2022/07/13 07:05:38;;;;;;;;;;;19.80;65.50;;;19.07;60.91;96496.22;4267419;33;20045;-82
2022/07/13 07:08:07;;;;;;;;;;;19.80;65.40;;;19.09;60.90;96498.66;4292424;33;19908;-82
2022/07/13 07:15:07;;;;;;;;;;;19.80;65.30;;;19.09;61.17;96491.16;4292306;33;19897;-82
2022/07/13 07:17:44;;;;;;;;;;;19.80;65.30;;;19.06;60.93;96490.97;4291503;33;20022;-82
2022/07/13 07:20:13;;;;;;;;;;;19.80;65.30;;;19.05;60.70;96495.72;4291531;33;20071;-82
2022/07/13 07:22:42;;;;;;;;;;;19.80;65.30;;;19.01;60.90;96495.53;4266714;33;19908;-82
2022/07/13 07:25:11;;;;;;;;;;;19.70;65.50;;;18.98;61.02;96484.22;4291436;33;19917;-82
2022/07/13 07:27:40;;;;;;;;;;;19.70;65.50;;;18.96;61.33;96492.88;4292054;33;20164;-82
2022/07/13 07:30:11;;;;;;;;;;;19.70;66.60;;;18.95;61.13;96493.22;4291325;33;19966;-82
2022/07/13 07:32:40;;;;;;;;;;;19.70;65.80;;;18.91;61.02;96487.44;4290821;33;20427;-82
2022/07/13 07:35:09;;;;;;;;;;;19.70;65.90;;;18.90;61.13;96494.13;4291143;33;20418;-83
2022/07/13 07:37:39;;;;;;;;;;;19.60;65.80;;;18.88;61.48;96490.03;4291457;33;19902;-82
2022/07/13 07:40:09;;;;;;;;;;;19.60;66.00;;;18.87;61.28;96500.31;4291134;33;19901;-82
2022/07/13 07:42:37;;;;;;;;;;;19.60;66.00;;;18.86;61.63;96490.34;4291748;33;20132;-82
2022/07/13 07:45:08;;;;;;;;;;;19.60;66.10;;;18.86;61.62;96498.69;4291183;33;19908;-82
2022/07/13 07:47:38;;;;;;;;;;;19.60;67.00;;;18.86;61.43;96490.34;4291191;33;19901;-82
2022/07/13 07:50:08;;;;;;;;;;;19.60;66.00;;;18.86;61.51;96493.13;4291977;33;20008;-82
2022/07/13 07:52:37;;;;;;;;;;;19.60;66.10;;;18.88;61.50;96498.34;4290655;33;20231;-82
2022/07/13 07:55:07;;;;;;;;;;;19.60;66.10;;;18.89;61.50;96503.59;4291032;33;19908;-82
2022/07/13 07:57:46;;;;;;;;;;;19.60;66.10;;;18.91;61.51;96495.75;4291920;33;19908;-82
2022/07/13 08:00:15;;;;;;;;;;;19.60;66.00;;;18.91;61.24;96500.50;4291057;33;19902;-82
2022/07/13 08:02:45;;;;;;;;;;;19.60;66.00;;;18.93;60.87;96490.72;4266232;33;20188;-82
2022/07/13 08:05:15;;;;;;;;;;;19.60;65.90;;;18.95;61.36;96491.25;4290824;33;19908;-82
2022/07/13 08:07:45;;;;;;;;;;;19.70;66.00;;;18.97;61.37;96483.44;4290933;33;20100;-82
2022/07/13 08:10:14;;;;;;;;;;;19.70;66.00;;;18.99;61.30;96486.72;4291804;33;19909;-82
2022/07/13 08:12:42;;;;;;;;;;;19.70;66.00;;;19.01;61.37;96478.06;4266200;33;19902;-82
2022/07/13 08:15:11;;;;;;;;;;;19.70;66.00;;;19.02;61.06;96485.25;4290626;33;19901;-82
2022/07/13 08:17:40;;;;;;;;;;;19.70;66.00;;;19.01;61.41;96478.06;4290912;33;19901;-82
2022/07/13 08:20:11;;;;;;;;;;;19.70;65.90;;;19.03;61.31;96475.78;4290656;33;20096;-82
2022/07/13 08:22:40;;;;;;;;;;;19.70;65.90;;;19.07;61.06;96487.88;4291198;33;19908;-82
2022/07/13 08:25:09;;;;;;;;;;;19.80;65.70;;;19.11;61.06;96482.50;4291608;33;20054;-82
2022/07/13 08:27:38;;;;;;;;;;;19.80;65.70;;;19.13;60.94;96485.78;4291590;33;19924;-82
2022/07/13 08:30:08;;;;;;;;;;;19.80;65.70;;;19.12;60.94;96481.38;4291648;33;19909;-82
2022/07/13 08:32:37;;;;;;;;;;;19.80;65.60;;;19.14;61.09;96487.44;4291084;33;19901;-82
2022/07/13 08:40:41;;;;;;;;;;;19.80;65.50;;;19.12;60.73;96489.72;4291497;33;20121;-82
2022/07/13 08:43:10;;;;;;;;;;;19.80;65.50;;;19.13;61.03;96480.25;4289927;33;20216;-82
2022/07/13 08:45:39;;;;;;;;;;;19.80;65.60;;;19.10;61.32;96487.25;4290229;33;20463;-82
2022/07/13 08:48:15;;;;;;;;;;;19.80;65.60;;;19.08;60.90;96474.81;4291345;33;19901;-82
2022/07/13 08:50:45;;;;;;;;;;;19.80;65.60;;;19.07;61.33;96484.28;4291247;33;20287;-82
2022/07/13 08:53:15;;;;;;;;;;;19.80;65.60;;;19.07;61.39;96487.88;4289866;33;19901;-81
2022/07/13 08:55:43;;;;;;;;;;;19.80;65.70;;;19.06;60.95;96488.19;4290352;33;19901;-83
2022/07/13 08:58:12;;;;;;;;;;;19.80;65.70;;;19.04;61.02;96488.53;4290416;33;19909;-82
2022/07/13 09:00:42;;;;;;;;;;;19.70;65.80;;;19.04;61.00;96487.72;4285512;33;20358;-82
2022/07/13 09:03:11;;;;;;;;;;;19.70;65.80;;;19.02;61.23;96488.00;4260651;33;19940;-82
2022/07/13 09:05:40;;;;;;;;;;;19.70;65.80;;;19.01;60.96;96490.00;4278155;33;20124;-82
2022/07/13 09:08:10;;;;;;;;;;;19.70;65.80;;;19.01;61.17;96490.00;4290382;33;20429;-83
2022/07/13 09:10:55;;;;;;;;;;;19.70;65.90;;;19.00;61.35;96493.91;4290163;33;19909;-82
2022/07/13 09:13:38;;;;;;;;;;;19.70;66.00;;;19.00;61.13;96482.78;4289648;33;19983;-82
2022/07/13 09:16:15;;;;;;;;;;;19.70;66.00;;;19.00;61.46;96493.91;4266045;33;20459;-82
2022/07/13 09:18:44;;;;;;;;;;;19.70;66.10;;;19.00;61.40;96488.34;4291087;33;20119;-82
2022/07/13 09:21:12;;;;;;;;;;;19.70;66.10;;;19.02;61.06;96488.00;4290236;33;19962;-82
2022/07/13 09:23:41;;;;;;;;;;;19.70;66.00;;;19.04;61.47;96487.72;4290484;33;19909;-82
2022/07/13 09:26:11;;;;;;;;;;;19.70;66.00;;;19.03;61.19;96486.06;4289960;33;19924;-82
2022/07/13 09:28:44;;;;;;;;;;;19.70;66.00;;;19.03;61.02;96483.31;4291021;33;19999;-82
2022/07/13 09:31:13;;;;;;;;;;;19.70;66.00;;;19.04;61.13;96491.28;4285171;33;19902;-82
2022/07/13 09:33:43;;;;;;;;;;;19.70;66.00;;;19.04;61.40;96484.94;4261716;33;19902;-82
2022/07/13 09:36:25;;;;;;;;;;;19.70;66.00;;;19.04;61.23;96488.53;4261024;33;19909;-82
2022/07/13 09:38:58;;;;;;;;;;;19.70;66.00;;;19.06;61.13;96488.19;4261104;33;19902;-82
2022/07/13 09:41:30;;;;;;;;;;;19.70;65.90;;;19.08;61.36;96485.91;4261473;33;20037;-82
2022/07/13 09:47:03;;;;;;;;;;;19.80;65.80;;;19.10;61.09;96478.09;4260370;33;20122;-83
2022/07/13 09:49:35;;;;;;;;;;;19.80;65.80;;;19.10;61.34;96484.47;4237110;33;19902;-83
2022/07/13 09:52:06;;;;;;;;;;;19.80;65.90;;;19.12;61.37;96487.72;4260674;33;20240;-83
2022/07/13 09:54:36;;;;;;;;;;;19.80;65.80;;;19.12;61.30;96482.19;4260723;33;19997;-83
2022/07/13 09:57:08;;;;;;;;;;;19.80;65.80;;;19.13;60.86;96483.03;4261777;33;19963;-83
2022/07/13 09:59:37;;;;;;;;;;;19.90;65.80;;;19.14;60.83;96488.25;4260926;33;20066;-83
2022/07/13 10:02:07;;;;;;;;;;;19.90;65.70;;;19.15;60.81;96489.88;4238388;33;19902;-82
2022/07/13 10:04:36;;;;;;;;;;;19.90;65.80;;;19.15;61.20;96484.31;4264285;33;19902;-82
2022/07/13 10:07:05;;;;;;;;;;;19.90;65.70;;;19.16;61.15;96477.66;4263312;33;19902;-82
2022/07/13 10:09:37;;;;;;;;;;;19.90;65.70;;;19.16;61.17;96485.16;4239506;33;20157;-83
2022/07/13 10:12:10;;;;;;;;;;;19.90;65.70;;;19.15;61.28;96473.22;4263889;33;20266;-81
2022/07/13 10:14:39;;;;;;;;;;;19.90;65.70;;;19.14;61.35;96477.13;4236810;28;20039;-85
2022/07/13 10:17:10;;;;;;;;;;;19.90;65.80;;;19.14;61.19;96485.47;4206362;33;20170;-85
2022/07/13 10:19:42;;;;;;;;;;;19.80;65.70;;;19.14;60.86;96479.09;4206291;33;20346;-85
2022/07/13 10:22:14;;;;;;;;;;;19.90;65.80;;;19.12;61.13;96479.41;4182696;33;19910;-84
2022/07/13 10:24:53;;;;;;;;;;;19.80;65.70;;;19.11;61.19;96480.53;4229865;33;20368;-85
2022/07/13 10:27:26;;;;;;;;;;;19.80;65.80;;;19.10;61.14;96481.72;4183133;33;19965;-86
2022/07/13 10:29:57;;;;;;;;;;;19.80;65.80;;;19.11;61.38;96491.66;4206181;33;20262;-85
2022/07/13 10:32:27;;;;;;;;;;;19.80;65.90;;;19.11;61.38;96474.19;4205659;33;19903;-86
2022/07/13 10:35:00;;;;;;;;;;;19.80;65.90;;;19.12;61.33;96475.81;4183036;33;20453;-85
2022/07/13 10:37:29;;;;;;;;;;;19.80;65.80;;;19.11;61.31;96476.97;4183032;33;19925;-85
2022/07/13 10:40:12;;;;;;;;;;;19.80;65.70;;;19.14;61.30;96470.78;4206188;33;20126;-85
2022/07/13 10:43:19;;;;;;;;;;;19.80;65.80;;;19.13;60.62;96477.47;4205726;33;19910;-85
2022/07/13 10:45:51;;;;;;;;;;;19.80;65.70;;;19.14;61.26;96471.59;4182964;33;20160;-85
2022/07/13 10:48:45;;;;;;;;;;;19.80;65.60;;;19.16;61.03;96468.50;4182758;33;19909;-86
2022/07/13 10:51:19;;;;;;;;;;;19.90;65.80;;;19.15;60.88;96461.31;4155313;34;19922;-84
2022/07/13 10:54:09;;;;;;;;;;;19.90;65.70;;;19.16;61.08;96462.97;4154769;34;20108;-85
2022/07/13 10:56:39;;;;;;;;;;;19.90;65.70;;;19.16;61.08;96462.97;4178229;34;19996;-86
2022/07/13 10:59:09;;;;;;;;;;;19.90;65.70;;;19.16;61.10;96463.75;4178025;33;19911;-86
2022/07/13 11:01:44;;;;;;;;;;;19.90;65.60;;;19.16;60.86;96457.41;4177535;34;19911;-86
2022/07/13 11:04:15;;;;;;;;;;;19.90;65.70;;;19.16;61.01;96466.53;4155007;34;19903;-86
2022/07/13 11:06:59;;;;;;;;;;;19.90;65.60;;;19.17;61.13;96470.94;4178112;34;19903;-85
2022/07/13 11:09:28;;;;;;;;;;;19.90;65.60;;;19.18;60.79;96466.22;4155087;34;19911;-86
2022/07/13 11:11:57;;;;;;;;;;;19.90;65.70;;;19.17;60.99;96462.63;4154519;34;20010;-86
2022/07/13 11:14:49;;;;;;;;;;;19.90;65.60;;;19.18;61.40;96466.22;4201063;33;19966;-84
2022/07/13 11:17:19;;;;;;;;;;;19.90;65.50;;;19.17;61.09;96462.63;4189453;33;19902;-86
2022/07/13 11:19:59;;;;;;;;;;;19.90;65.60;;;19.15;61.12;96453.81;4233839;33;19910;-86
2022/07/13 11:25:13;;;;;;;;;;;19.90;65.70;;;19.17;61.22;96453.47;4233297;33;19903;-86
2022/07/13 11:25:34;;;;;;;;;;;19.90;65.70;;;19.16;61.40;96462.97;4200816;33;19903;-85
2022/07/13 11:28:15;;;;;;;;;;;19.90;65.80;;;19.15;61.19;96461.31;4177953;34;20083;-86
2022/07/13 11:30:45;;;;;;;;;;;19.90;65.90;;;19.15;61.44;96453.00;4177807;34;20085;-85
2022/07/13 11:33:14;;;;;;;;;;;19.90;66.00;;;19.15;61.24;96453.00;4154440;34;20108;-86
2022/07/13 11:35:47;;;;;;;;;;;19.90;65.90;;;19.14;61.29;96452.16;4177824;34;19907;-86
2022/07/13 11:38:16;;;;;;;;;;;19.80;65.80;;;19.12;61.32;96445.31;4154945;34;19903;-85
2022/07/13 11:40:45;;;;;;;;;;;19.90;65.90;;;19.12;61.31;96445.31;4200771;33;20380;-85
2022/07/13 11:43:14;;;;;;;;;;;19.80;65.80;;;19.13;61.22;96455.28;4193190;33;20171;-85
2022/07/13 11:45:50;;;;;;;;;;;19.80;66.00;;;19.12;61.20;96446.09;4205378;33;20411;-86
2022/07/13 11:48:26;;;;;;;;;;;19.80;65.90;;;19.11;61.41;96443.66;4181296;33;19910;-85
2022/07/13 11:50:55;;;;;;;;;;;19.80;66.00;;;19.13;61.23;96441.41;4229012;33;19910;-85